Time;durP1;ratioP1;P1;durP2;ratioP2;P2;SDS_P1;SDS_P2;PMS_P1;PMS_P2;Temp;Humidity;BMP_temperature;BMP_pressure;BME280_temperature;BME280_humidity;BME280_pressure;Samples;Min_cycle;Max_cycle;Signal;HPM_P1;HPM_P2
2021/05/03 00:00:28;;;;;;;5.60;3.50;;;;;;;10.38;56.53;101160.50;5094414;28;20454;-46
2021/05/03 00:02:56;;;;;;;4.68;3.47;;;;;;;10.39;56.33;101156.59;5093101;28;20048;-47
2021/05/03 00:05:25;;;;;;;6.05;3.13;;;;;;;10.35;56.78;101147.31;5093263;28;20139;-46
2021/05/03 00:07:54;;;;;;;4.75;3.28;;;;;;;10.32;56.94;101148.00;5093508;28;20055;-46
2021/05/03 00:10:20;;;;;;;4.50;2.88;;;;;;;10.31;57.18;101146.38;5093871;28;20127;-46
2021/05/03 00:12:46;;;;;;;4.00;2.65;;;;;;;10.29;57.05;101140.38;5093586;28;20080;-46
2021/05/03 00:15:14;;;;;;;5.47;3.40;;;;;;;10.28;56.95;101126.84;5093798;28;20492;-47
2021/05/03 00:17:41;;;;;;;6.28;3.13;;;;;;;10.23;57.36;101122.34;5073960;28;20090;-46
2021/05/03 00:20:09;;;;;;;5.88;3.17;;;;;;;10.18;57.66;101130.81;5092715;28;20451;-46
2021/05/03 00:22:39;;;;;;;6.22;3.83;;;;;;;10.14;57.56;101121.56;5088043;28;20070;-50
2021/05/03 00:25:06;;;;;;;5.88;3.40;;;;;;;10.10;58.00;101120.56;5093347;28;20077;-46
2021/05/03 00:27:32;;;;;;;5.78;3.63;;;;;;;10.05;58.31;101112.47;5093389;28;20048;-46
2021/05/03 00:29:58;;;;;;;4.75;3.00;;;;;;;10.01;58.10;101117.03;5093087;28;20131;-47
2021/05/03 00:32:25;;;;;;;4.65;2.95;;;;;;;10.00;58.12;101114.59;5093125;28;20105;-48
2021/05/03 00:34:52;;;;;;;6.13;3.30;;;;;;;9.99;57.81;101108.25;5079881;28;20051;-46
2021/05/03 00:37:18;;;;;;;4.70;3.10;;;;;;;9.95;57.77;101099.00;5090556;28;20541;-46
2021/05/03 00:39:45;;;;;;;7.10;3.15;;;;;;;9.96;58.02;101095.09;5093075;28;20431;-47
2021/05/03 00:42:12;;;;;;;4.97;3.00;;;;;;;9.94;57.97;101091.84;5092908;28;20109;-49
2021/05/03 00:44:39;;;;;;;5.60;2.97;;;;;;;9.93;57.93;101092.97;5092738;28;20518;-48
2021/05/03 00:47:05;;;;;;;4.95;3.63;;;;;;;9.91;58.08;101089.75;5093134;28;20048;-46
2021/05/03 00:49:33;;;;;;;4.50;2.45;;;;;;;9.90;58.18;101082.56;5092471;28;20198;-47
2021/05/03 00:51:59;;;;;;;2.90;2.47;;;;;;;9.90;58.01;101082.56;5092224;28;20071;-49
2021/05/03 00:54:25;;;;;;;3.17;2.30;;;;;;;9.88;57.92;101084.06;5091078;28;20135;-47
2021/05/03 00:56:52;;;;;;;5.75;2.53;;;;;;;9.83;58.23;101076.75;5092483;28;20516;-46
2021/05/03 00:59:18;;;;;;;4.82;2.50;;;;;;;9.82;58.46;101075.16;5093182;28;20142;-47
2021/05/03 01:01:44;;;;;;;5.72;3.00;;;;;;;9.80;58.23;101071.91;5092584;28;20089;-45
2021/05/03 01:04:11;;;;;;;5.40;3.35;;;;;;;9.79;58.55;101064.75;5092396;28;20054;-49
2021/05/03 01:06:37;;;;;;;5.47;2.85;;;;;;;9.77;58.27;101062.31;5091585;28;20072;-47
2021/05/03 01:09:05;;;;;;;6.47;3.22;;;;;;;9.74;58.56;101053.88;5091684;28;20143;-49
2021/05/03 01:11:33;;;;;;;5.28;2.83;;;;;;;9.72;58.42;101056.16;5081138;28;20119;-46
2021/05/03 01:13:59;;;;;;;4.57;3.15;;;;;;;9.69;58.50;101056.81;5092032;28;20036;-47
2021/05/03 01:16:25;;;;;;;7.50;3.15;;;;;;;9.67;58.71;101039.75;5092400;28;20093;-47
2021/05/03 01:18:53;;;;;;;3.03;2.40;;;;;;;9.64;58.57;101041.22;5091900;28;20457;-48
2021/05/03 01:21:26;;;;;;;7.20;3.00;;;;;;;9.59;59.01;101046.13;5092248;28;20122;-48
2021/05/03 01:23:53;;;;;;;4.30;3.03;;;;;;;9.61;58.88;101038.34;5091504;28;20073;-45
2021/05/03 01:26:20;;;;;;;4.72;2.90;;;;;;;9.59;58.88;101032.31;5092238;28;20445;-46
2021/05/03 01:28:47;;;;;;;4.22;2.65;;;;;;;9.57;58.89;101023.53;5091751;28;20044;-48
2021/05/03 01:31:14;;;;;;;5.68;2.70;;;;;;;9.61;59.12;101019.00;5091824;28;20055;-49
2021/05/03 01:33:42;;;;;;;4.90;2.97;;;;;;;9.65;58.74;101017.16;5091364;28;20409;-48
2021/05/03 01:36:08;;;;;;;3.53;2.13;;;;;;;9.62;58.97;101007.59;5091741;28;20044;-47
2021/05/03 01:38:35;;;;;;;4.32;2.95;;;;;;;9.69;58.93;101004.28;5091943;28;20072;-47
2021/05/03 01:41:02;;;;;;;4.68;2.75;;;;;;;9.66;59.04;100999.44;5092192;28;20489;-47
2021/05/03 01:43:29;;;;;;;6.07;2.80;;;;;;;9.62;59.33;101001.25;5091526;28;20040;-47
2021/05/03 01:45:57;;;;;;;4.00;2.65;;;;;;;9.59;59.34;100993.59;5091358;28;20076;-50
2021/05/03 01:48:26;;;;;;;6.63;2.47;;;;;;;9.58;59.54;100995.56;5091948;28;20144;-46
2021/05/03 01:50:54;;;;;;;3.17;2.88;;;;;;;9.55;59.55;100987.13;5091253;28;20063;-46
2021/05/03 01:53:21;;;;;;;5.03;2.30;;;;;;;9.53;59.57;100986.66;5091631;28;20552;-46
2021/05/03 01:55:59;;;;;;;3.65;2.42;;;;;;;9.53;59.61;100972.84;5091724;28;20040;-51
2021/05/03 01:58:26;;;;;;;3.88;2.65;;;;;;;9.54;59.59;100980.78;5089873;28;20055;-52
2021/05/03 02:00:56;;;;;;;5.50;3.63;;;;;;;9.53;59.71;100979.16;5089811;28;20052;-48
2021/05/03 02:03:25;;;;;;;4.28;2.50;;;;;;;9.54;59.76;100977.22;5089890;28;20078;-47
2021/05/03 02:05:55;;;;;;;4.53;2.45;;;;;;;9.54;59.85;100963.41;5091239;28;20051;-49
2021/05/03 02:08:21;;;;;;;6.50;2.17;;;;;;;9.51;59.87;100961.28;5091385;28;20578;-51
2021/05/03 02:10:50;;;;;;;4.85;2.45;;;;;;;9.50;59.94;100962.44;5091232;28;20067;-47
2021/05/03 02:13:18;;;;;;;3.13;2.30;;;;;;;9.50;60.09;100951.41;5091408;28;20036;-49
2021/05/03 02:15:47;;;;;;;3.03;1.90;;;;;;;9.49;60.06;100947.00;5091456;28;20435;-50
2021/05/03 02:18:14;;;;;;;3.25;2.22;;;;;;;9.48;60.30;100942.59;5091537;28;20470;-48
2021/05/03 02:20:43;;;;;;;4.68;2.58;;;;;;;9.53;60.33;100934.16;5090255;28;20377;-49
2021/05/03 02:23:10;;;;;;;2.42;1.75;;;;;;;9.58;59.88;100920.91;5090272;28;20044;-50
2021/05/03 02:25:37;;;;;;;3.70;2.58;;;;;;;9.59;59.86;100916.22;5071289;28;20589;-48
2021/05/03 02:28:09;;;;;;;13.88;6.07;;;;;;;9.57;59.84;100912.97;5090551;28;20483;-49
2021/05/03 02:30:35;;;;;;;14.23;6.18;;;;;;;9.57;60.21;100913.78;5090607;28;20063;-49
2021/05/03 02:33:02;;;;;;;12.55;6.13;;;;;;;9.57;60.28;100912.97;5090872;28;20052;-51
2021/05/03 02:35:29;;;;;;;12.75;5.07;;;;;;;9.56;60.50;100905.81;5090361;28;20101;-52
2021/05/03 02:37:58;;;;;;;17.95;6.40;;;;;;;9.56;60.59;100903.06;5090362;28;20060;-49
2021/05/03 02:40:25;;;;;;;30.63;10.27;;;;;;;9.57;60.27;100902.75;5091085;28;20083;-51
2021/05/03 02:42:54;;;;;;;97.72;36.92;;;;;;;9.60;60.55;100892.97;5084909;28;20119;-52
2021/05/03 02:45:21;;;;;;;110.80;44.20;;;;;;;9.64;60.03;100880.09;5073744;28;20036;-49
2021/05/03 02:47:48;;;;;;;121.32;47.90;;;;;;;9.68;60.06;100883.81;5091033;28;20115;-50
2021/05/03 02:50:16;;;;;;;151.55;56.30;;;;;;;9.68;60.17;100869.97;5090128;28;20139;-49
2021/05/03 02:52:46;;;;;;;189.15;78.60;;;;;;;9.68;60.52;100869.97;5090699;28;20095;-48
2021/05/03 02:55:12;;;;;;;133.02;55.88;;;;;;;9.71;59.85;100861.03;5090751;28;20450;-47
2021/05/03 02:57:40;;;;;;;60.78;24.10;;;;;;;9.72;59.81;100854.34;5090912;28;20156;-48
2021/05/03 03:00:10;;;;;;;66.03;24.80;;;;;;;9.72;59.91;100857.91;5090994;28;20566;-49
2021/05/03 03:02:36;;;;;;;30.92;12.88;;;;;;;9.71;59.84;100849.97;5090732;28;20044;-47
2021/05/03 03:05:04;;;;;;;39.60;16.30;;;;;;;9.74;59.69;100846.53;5090414;28;20041;-49
2021/05/03 03:07:30;;;;;;;27.38;10.88;;;;;;;9.73;59.43;100845.72;5089399;28;20063;-47
2021/05/03 03:09:56;;;;;;;37.20;16.63;;;;;;;9.73;59.71;100831.06;5091232;28;20064;-47
2021/05/03 03:12:23;;;;;;;22.55;9.23;;;;;;;9.73;59.38;100828.31;5090806;28;20051;-45
2021/05/03 03:14:50;;;;;;;73.35;34.97;;;;;;;9.71;59.29;100828.66;5092714;28;20451;-46
2021/05/03 03:17:16;;;;;;;84.25;39.75;;;;;;;9.70;59.42;100807.69;5093563;28;20076;-50
2021/05/03 03:19:47;;;;;;;79.38;34.75;;;;;;;9.68;59.55;100806.41;5095107;28;20056;-48
2021/05/03 03:22:13;;;;;;;31.75;16.48;;;;;;;9.67;59.38;100800.06;5089301;28;20131;-47
2021/05/03 03:24:39;;;;;;;26.92;11.57;;;;;;;9.64;59.21;100803.50;5077167;28;20049;-47
2021/05/03 03:27:06;;;;;;;13.05;6.53;;;;;;;9.65;59.17;100805.13;5093889;28;20075;-48
2021/05/03 03:29:33;;;;;;;7.55;3.17;;;;;;;9.60;58.92;100790.69;5093427;28;20102;-46
2021/05/03 03:31:59;;;;;;;8.15;4.18;;;;;;;9.58;58.63;100793.78;5093272;28;20548;-48
2021/05/03 03:34:27;;;;;;;4.20;2.50;;;;;;;9.58;58.07;100777.19;5094684;28;20093;-47
2021/05/03 03:37:04;;;;;;;3.45;1.65;;;;;;;9.56;58.16;100781.44;5094240;28;20055;-46
2021/05/03 03:39:31;;;;;;;4.43;1.88;;;;;;;9.44;58.01;100776.69;5094250;28;20062;-48
2021/05/03 03:41:57;;;;;;;5.70;2.22;;;;;;;9.43;58.16;100769.53;5094420;28;20044;-46
2021/05/03 03:44:23;;;;;;;3.78;2.00;;;;;;;9.46;57.95;100756.97;5094140;28;20121;-46
2021/05/03 03:46:50;;;;;;;4.07;2.35;;;;;;;9.44;58.05;100754.56;5094138;28;20140;-48
2021/05/03 03:49:18;;;;;;;2.30;1.33;;;;;;;9.40;57.86;100747.31;5094413;28;20111;-46
2021/05/03 03:51:44;;;;;;;5.15;1.85;;;;;;;9.41;57.79;100737.84;5093315;28;20129;-46
2021/05/03 03:54:11;;;;;;;2.17;0.88;;;;;;;9.38;57.87;100738.50;5094304;28;20147;-46
2021/05/03 03:56:40;;;;;;;1.00;0.82;;;;;;;9.35;57.88;100726.19;5093092;28;20044;-48
2021/05/03 03:59:10;;;;;;;2.63;1.30;;;;;;;9.32;57.93;100713.03;5092647;28;20052;-48
2021/05/03 04:01:41;;;;;;;2.40;1.05;;;;;;;9.31;58.51;100716.16;5093797;28;20127;-47
2021/05/03 04:04:19;;;;;;;2.35;1.23;;;;;;;9.32;58.33;100706.75;5093340;28;20410;-47
2021/05/03 04:07:33;;;;;;;2.13;1.20;;;;;;;9.34;58.39;100696.16;5093571;28;20145;-46
2021/05/03 04:12:30;;;;;;;;;;;;;;;9.35;59.02;100694.97;5094055;28;20071;-48
2021/05/03 04:25:44;;;;;;;;;;;;;;;9.12;61.19;100673.25;5083180;28;20051;-48
2021/05/03 04:28:10;;;;;;;0.68;0.60;;;;;;;9.13;59.99;100669.31;5084410;28;19924;-48
2021/05/03 04:30:36;;;;;;;1.95;0.70;;;;;;;9.09;60.24;100660.13;5093537;28;20079;-48
2021/05/03 04:33:03;;;;;;;0.40;0.40;;;;;;;9.11;60.51;100646.75;5093270;28;20424;-46
2021/05/03 04:35:30;;;;;;;3.30;0.70;;;;;;;9.09;60.89;100651.81;5092627;28;20485;-46
2021/05/03 04:37:57;;;;;;;3.38;0.60;;;;;;;9.06;60.78;100641.44;5093013;28;20044;-47
2021/05/03 04:40:23;;;;;;;2.28;0.85;;;;;;;9.08;60.83;100641.91;5092796;28;20059;-48
2021/05/03 04:42:53;;;;;;;0.80;0.60;;;;;;;9.09;61.07;100646.31;5093150;28;20093;-46
2021/05/03 04:45:20;;;;;;;0.82;0.63;;;;;;;9.08;61.20;100641.91;5092975;28;20101;-47
2021/05/03 04:47:46;;;;;;;1.55;0.50;;;;;;;9.05;61.16;100647.31;5092997;28;20044;-48
2021/05/03 04:50:13;;;;;;;2.00;0.70;;;;;;;9.01;61.42;100636.13;5092767;28;20048;-47
2021/05/03 04:52:39;;;;;;;1.42;0.73;;;;;;;8.97;61.73;100628.88;5092750;28;20564;-48
2021/05/03 04:55:06;;;;;;;0.40;0.40;;;;;;;8.93;62.10;100628.72;5092653;28;20555;-47
2021/05/03 04:57:33;;;;;;;0.77;0.50;;;;;;;8.90;62.50;100623.88;5093132;28;20055;-46
2021/05/03 05:00:00;;;;;;;0.70;0.70;;;;;;;8.90;62.54;100618.34;5092632;28;20040;-47
2021/05/03 05:02:26;;;;;;;1.48;0.77;;;;;;;8.86;63.28;100605.56;5092781;28;20044;-48
2021/05/03 05:04:53;;;;;;;2.53;0.65;;;;;;;8.86;63.19;100595.34;5092186;28;20258;-46
2021/05/03 05:07:21;;;;;;;1.75;0.77;;;;;;;8.82;63.67;100588.84;5075883;28;20098;-49
2021/05/03 05:09:47;;;;;;;1.75;0.60;;;;;;;8.84;63.83;100581.03;5082913;28;20075;-47
2021/05/03 05:12:19;;;;;;;1.52;0.75;;;;;;;8.78;63.81;100574.13;5092227;28;20040;-47
2021/05/03 05:14:46;;;;;;;0.82;0.60;;;;;;;8.72;64.51;100572.72;5091457;28;20044;-47
2021/05/03 05:17:13;;;;;;;0.75;0.70;;;;;;;8.69;64.69;100570.63;5092728;28;20834;-47
2021/05/03 05:19:40;;;;;;;2.05;0.80;;;;;;;8.65;65.14;100552.31;5091593;28;20131;-50
2021/05/03 05:22:06;;;;;;;0.80;0.70;;;;;;;8.67;65.19;100545.31;5091694;28;20075;-47
2021/05/03 05:24:35;;;;;;;1.08;0.73;;;;;;;8.70;65.36;100539.13;5092147;28;20113;-47
2021/05/03 05:27:03;;;;;;;1.52;0.50;;;;;;;8.71;65.08;100532.44;5092087;28;20105;-48
2021/05/03 05:29:29;;;;;;;0.57;0.57;;;;;;;8.66;65.95;100532.66;5092254;28;20058;-48
2021/05/03 05:31:56;;;;;;;1.00;0.70;;;;;;;8.62;66.10;100526.22;5092144;28;20143;-47
2021/05/03 05:34:22;;;;;;;0.85;0.60;;;;;;;8.61;66.53;100521.81;5092077;28;20582;-47
2021/05/03 05:36:50;;;;;;;1.27;0.63;;;;;;;8.49;66.87;100502.47;5090536;28;20060;-56
2021/05/03 05:39:16;;;;;;;1.15;0.50;;;;;;;8.44;67.08;100500.72;5090080;28;20123;-47
2021/05/03 05:41:43;;;;;;;1.77;0.57;;;;;;;8.45;67.25;100487.72;5087522;28;20036;-46
2021/05/03 05:44:12;;;;;;;0.60;0.50;;;;;;;8.45;67.23;100490.47;5091626;28;20503;-47
2021/05/03 05:46:40;;;;;;;0.73;0.70;;;;;;;8.45;67.44;100476.66;5092053;28;20052;-47
2021/05/03 05:49:08;;;;;;;1.05;0.90;;;;;;;8.44;67.72;100461.28;5090995;28;20628;-47
2021/05/03 05:51:35;;;;;;;4.03;0.50;;;;;;;8.45;67.87;100454.59;5091179;28;20131;-46
2021/05/03 05:54:01;;;;;;;0.80;0.80;;;;;;;8.46;67.93;100450.72;5091313;28;20062;-47
2021/05/03 05:56:28;;;;;;;3.00;0.75;;;;;;;8.48;68.00;100445.66;5092200;28;20181;-47
2021/05/03 05:58:54;;;;;;;1.10;0.77;;;;;;;8.44;68.81;100434.50;5089893;28;20067;-47
2021/05/03 06:01:22;;;;;;;1.10;1.02;;;;;;;8.38;68.61;100426.75;5091714;28;20077;-48
2021/05/03 06:03:48;;;;;;;3.85;1.30;;;;;;;8.36;69.20;100427.13;5092085;28;20421;-47
2021/05/03 06:06:21;;;;;;;2.08;1.02;;;;;;;8.33;69.30;100415.94;5091155;28;20046;-47
2021/05/03 06:08:48;;;;;;;5.68;1.17;;;;;;;8.27;69.75;100411.78;5091490;28;20089;-47
2021/05/03 06:11:15;;;;;;;1.58;0.80;;;;;;;8.21;70.33;100396.53;5091771;28;20040;-47
2021/05/03 06:13:42;;;;;;;1.60;1.20;;;;;;;8.15;70.57;100392.41;5091336;28;20079;-46
2021/05/03 06:16:08;;;;;;;4.90;1.73;;;;;;;8.14;70.48;100385.25;5091390;28;20090;-46
2021/05/03 06:18:35;;;;;;;2.03;1.08;;;;;;;8.09;70.89;100371.69;5088904;28;20048;-45
2021/05/03 06:21:01;;;;;;;1.75;0.80;;;;;;;8.08;71.52;100364.53;5091623;28;20044;-48
2021/05/03 06:23:28;;;;;;;0.88;0.82;;;;;;;8.03;71.53;100348.22;5091491;28;20109;-46
2021/05/03 06:25:54;;;;;;;4.60;2.38;;;;;;;8.01;71.88;100342.22;5091981;28;20093;-46
2021/05/03 06:28:22;;;;;;;1.95;1.20;;;;;;;8.00;72.00;100330.41;5091597;28;20040;-50
2021/05/03 06:30:57;;;;;;;2.63;1.38;;;;;;;7.98;72.47;100316.16;5090233;28;20062;-49
2021/05/03 06:33:25;;;;;;;2.55;1.52;;;;;;;7.98;72.28;100308.69;5090455;28;20079;-47
2021/05/03 06:35:51;;;;;;;2.05;1.15;;;;;;;8.00;72.21;100302.81;5085152;28;20044;-45
2021/05/03 06:38:20;;;;;;;2.97;1.27;;;;;;;8.04;72.59;100297.44;5075460;28;20043;-47
2021/05/03 06:40:48;;;;;;;7.63;1.45;;;;;;;8.06;72.84;100290.44;5090540;28;20071;-49
2021/05/03 06:43:14;;;;;;;2.17;1.35;;;;;;;8.03;73.03;100276.53;5091096;28;20101;-49
2021/05/03 06:45:44;;;;;;;2.03;1.20;;;;;;;8.03;73.43;100258.03;5091221;28;20044;-47
2021/05/03 06:48:12;;;;;;;3.17;1.30;;;;;;;8.06;73.28;100254.63;5090135;28;20043;-49
2021/05/03 06:50:45;;;;;;;4.22;1.38;;;;;;;8.09;73.50;100248.41;5090755;28;20131;-46
2021/05/03 06:53:14;;;;;;;2.30;1.60;;;;;;;8.09;73.59;100237.41;5095147;28;20048;-51
2021/05/03 06:55:42;;;;;;;2.55;1.58;;;;;;;8.06;73.71;100229.00;5095586;28;20068;-48
2021/05/03 06:58:09;;;;;;;2.35;1.30;;;;;;;8.05;74.20;100219.13;5094632;28;20048;-45
2021/05/03 07:00:41;;;;;;;3.95;1.05;;;;;;;8.02;74.55;100203.25;5095436;28;20044;-47
2021/05/03 07:03:10;;;;;;;1.70;1.20;;;;;;;8.04;74.65;100189.94;5093343;28;20056;-47
2021/05/03 07:05:38;;;;;;;3.33;1.10;;;;;;;7.96;74.63;100170.41;5094948;28;20423;-50
2021/05/03 07:08:11;;;;;;;6.35;0.93;;;;;;;7.95;74.58;100160.53;5094368;28;20040;-48
2021/05/03 07:10:41;;;;;;;3.00;0.80;;;;;;;7.97;74.44;100154.66;5093202;28;20048;-45
2021/05/03 07:13:08;;;;;;;3.83;0.90;;;;;;;7.97;74.63;100138.13;5088271;28;20064;-46
2021/05/03 07:15:34;;;;;;;4.43;1.33;;;;;;;7.98;74.95;100121.25;5078814;28;20090;-48
2021/05/03 07:18:05;;;;;;;2.95;0.90;;;;;;;7.94;75.36;100106.53;5092994;28;20099;-50
2021/05/03 07:20:32;;;;;;;1.88;0.77;;;;;;;7.91;75.53;100104.47;5068058;28;20044;-48
2021/05/03 07:23:02;;;;;;;1.98;0.68;;;;;;;7.91;75.85;100090.72;5078142;28;20462;-46
2021/05/03 07:25:29;;;;;;;1.02;0.60;;;;;;;7.91;75.62;100082.44;5085287;28;20497;-46
2021/05/03 07:27:56;;;;;;;1.15;0.32;;;;;;;7.86;75.45;100065.31;5094821;28;20071;-46
2021/05/03 07:30:23;;;;;;;2.10;0.30;;;;;;;7.81;75.44;100046.25;5094476;28;20101;-46
2021/05/03 07:32:50;;;;;;;1.38;0.30;;;;;;;7.80;75.32;100039.13;5090212;28;20102;-44
2021/05/03 07:35:16;;;;;;;4.45;0.60;;;;;;;7.80;75.75;100028.09;5093343;28;20423;-46
2021/05/03 07:37:42;;;;;;;4.65;2.20;;;;;;;7.80;76.17;100017.91;5080110;28;20083;-45
2021/05/03 07:40:09;;;;;;;1.27;0.60;;;;;;;7.77;76.04;100015.81;5079930;28;20074;-46
2021/05/03 07:42:36;;;;;;;3.33;0.68;;;;;;;7.72;76.27;99995.97;5088032;28;20043;-46
2021/05/03 07:45:09;;;;;;;3.03;0.60;;;;;;;7.68;76.30;99984.81;5089492;28;20560;-47
2021/05/03 07:47:36;;;;;;;2.92;0.75;;;;;;;7.72;76.54;99976.66;5088678;28;20043;-47
2021/05/03 07:50:04;;;;;;;1.52;0.80;;;;;;;7.77;76.64;99963.47;5091259;28;20333;-48
2021/05/03 07:52:31;;;;;;;2.28;0.57;;;;;;;7.79;77.04;99938.31;5088278;28;20784;-49
2021/05/03 07:54:59;;;;;;;1.10;0.60;;;;;;;7.84;76.66;99927.06;5088706;28;20484;-52
2021/05/03 07:57:27;;;;;;;0.85;0.52;;;;;;;7.83;76.78;99929.03;5088992;28;20468;-49
2021/05/03 07:59:53;;;;;;;1.08;0.50;;;;;;;7.85;77.26;99912.94;5090246;28;20082;-48
2021/05/03 08:02:21;;;;;;;1.42;0.68;;;;;;;7.86;77.31;99888.94;5089414;28;20051;-47
2021/05/03 08:04:51;;;;;;;1.42;0.75;;;;;;;7.85;77.11;99890.91;5089873;28;20040;-52
2021/05/03 08:07:20;;;;;;;2.47;0.73;;;;;;;7.87;77.31;99854.72;5088439;28;20097;-48
2021/05/03 08:09:47;;;;;;;1.08;0.45;;;;;;;7.88;77.30;99853.56;5090416;28;20063;-50
2021/05/03 08:12:13;;;;;;;0.60;0.40;;;;;;;7.89;77.47;99836.69;5088023;28;20131;-49
2021/05/03 08:14:50;;;;;;;1.85;0.20;;;;;;;7.90;77.33;99819.00;5083525;28;20059;-46
2021/05/03 08:17:20;;;;;;;2.20;0.30;;;;;;;7.90;77.48;99802.47;5087357;28;20159;-48
2021/05/03 08:19:46;;;;;;;0.20;0.20;;;;;;;7.89;77.40;99786.25;5084167;28;20572;-49
2021/05/03 08:22:15;;;;;;;0.30;0.20;;;;;;;7.94;77.09;99775.03;5073656;28;20040;-47
2021/05/03 08:24:43;;;;;;;0.30;0.20;;;;;;;7.93;77.40;99774.22;5082886;28;20045;-49
2021/05/03 08:27:09;;;;;;;0.17;0.17;;;;;;;7.96;77.24;99768.00;5075951;28;20778;-49
2021/05/03 08:29:37;;;;;;;0.30;0.17;;;;;;;8.00;77.20;99751.53;5084724;28;20044;-48
2021/05/03 08:32:04;;;;;;;1.00;0.30;;;;;;;8.02;76.99;99742.94;5086988;28;20488;-51
2021/05/03 08:34:31;;;;;;;0.82;0.40;;;;;;;8.06;76.92;99730.03;5087896;28;20048;-46
2021/05/03 08:36:57;;;;;;;2.65;0.82;;;;;;;8.09;76.74;99715.56;5089381;28;20132;-48
2021/05/03 08:39:26;;;;;;;0.63;0.50;;;;;;;8.10;77.05;99695.13;5089569;28;20121;-50
2021/05/03 08:42:00;;;;;;;2.20;0.47;;;;;;;8.11;76.77;99688.44;5085811;28;20520;-49
2021/05/03 08:44:28;;;;;;;0.73;0.30;;;;;;;8.16;76.74;99675.19;5085083;28;20044;-49
2021/05/03 08:46:56;;;;;;;0.50;0.20;;;;;;;8.20;76.78;99667.00;5086408;28;20059;-52
2021/05/03 08:54:41;;;;;;;0.50;0.40;;;;;;;8.33;77.05;99628.00;5086191;28;20048;-48
2021/05/03 08:57:09;;;;;;;1.95;0.40;;;;;;;8.39;76.96;99621.03;5075363;28;20551;-51
2021/05/03 08:59:38;;;;;;;1.80;0.40;;;;;;;8.41;77.26;99602.19;5078652;28;20412;-49
2021/05/03 09:02:10;;;;;;;3.05;0.70;;;;;;;8.44;77.96;99584.13;5078533;28;20051;-46
2021/05/03 09:04:37;;;;;;;3.38;0.52;;;;;;;8.51;77.01;99587.03;5085334;28;20043;-49
2021/05/03 09:07:07;;;;;;;1.83;0.40;;;;;;;8.55;77.40;99563.09;5074157;28;20047;-50
2021/05/03 09:09:36;;;;;;;1.05;0.47;;;;;;;8.60;77.36;99554.53;5085973;28;20052;-47
2021/05/03 09:12:06;;;;;;;2.55;0.32;;;;;;;8.66;77.36;99553.09;5078611;28;20130;-48
2021/05/03 09:14:45;;;;;;;1.40;0.63;;;;;;;8.72;77.08;99540.59;5075708;28;20404;-47
2021/05/03 09:17:33;;;;;;;1.35;0.22;;;;;;;8.76;77.42;99522.19;5086870;28;20042;-47
2021/05/03 09:20:11;;;;;;;0.52;0.40;;;;;;;8.81;76.74;99510.03;5086919;28;20040;-48
2021/05/03 09:23:24;;;;;;;0.63;0.20;;;;;;;8.87;76.46;99495.56;5088446;28;20048;-47
2021/05/03 09:25:44;;;;;;;0.57;0.38;;;;;;;8.94;76.33;99484.69;5081794;28;20048;-46
2021/05/03 09:28:14;;;;;;;4.15;0.40;;;;;;;8.97;76.53;99480.41;5087982;28;20047;-47
2021/05/03 09:30:44;;;;;;;0.60;0.40;;;;;;;9.01;76.67;99459.97;5073159;28;20085;-54
2021/05/03 09:33:24;;;;;;;2.83;0.55;;;;;;;9.05;76.86;99452.53;5084469;28;20189;-46
2021/05/03 09:35:57;;;;;;;1.08;0.52;;;;;;;9.10;76.56;99435.72;5089720;28;20044;-49
2021/05/03 09:38:29;;;;;;;2.15;0.75;;;;;;;9.11;76.86;99437.28;5086383;28;20431;-47
2021/05/03 09:41:21;;;;;;;3.38;0.60;;;;;;;9.16;77.32;99412.13;5088929;28;20040;-49
2021/05/03 09:44:07;;;;;;;2.30;0.60;;;;;;;9.24;77.46;99398.47;5083988;28;20050;-50
2021/05/03 09:46:42;;;;;;;1.27;0.30;;;;;;;9.31;76.85;99390.28;5069554;28;20297;-49
2021/05/03 09:49:09;;;;;;;2.38;0.80;;;;;;;9.37;76.87;99375.00;5087775;28;20405;-46
2021/05/03 09:51:50;;;;;;;8.93;0.80;;;;;;;9.44;77.43;99364.06;5083555;28;20501;-48
2021/05/03 09:54:26;;;;;;;2.25;0.40;;;;;;;9.54;76.69;99353.16;5089068;28;20040;-46
2021/05/03 09:57:04;;;;;;;0.73;0.20;;;;;;;9.65;76.99;99328.47;5087952;28;20052;-48
2021/05/03 09:59:33;;;;;;;1.15;1.05;;;;;;;9.73;76.65;99338.44;5086559;28;20477;-49
2021/05/03 10:02:20;;;;;;;4.93;0.73;;;;;;;9.80;76.87;99319.97;5086262;28;20850;-47
2021/05/03 10:07:36;;;;;;;3.00;0.30;;;;;;;9.94;76.27;99294.50;5068411;28;20080;-47
2021/05/03 10:10:11;;;;;;;0.45;0.20;;;;;;;10.01;76.29;99257.84;5072649;28;20048;-52
2021/05/03 10:12:43;;;;;;;2.67;0.32;;;;;;;10.04;76.42;99246.81;5078664;28;20052;-51
2021/05/03 10:15:15;;;;;;;0.90;0.20;;;;;;;10.07;76.60;99261.84;5070727;28;20044;-49
2021/05/03 10:17:47;;;;;;;0.98;0.50;;;;;;;10.11;76.78;99240.59;5083735;28;20105;-52
2021/05/03 10:20:19;;;;;;;0.90;0.43;;;;;;;10.13;77.05;99241.84;5075191;28;20534;-49
2021/05/03 10:22:53;;;;;;;2.42;0.40;;;;;;;10.13;77.70;99216.13;5079670;28;20064;-49
2021/05/03 10:25:20;;;;;;;0.23;0.20;;;;;;;10.10;77.39;99192.78;5067054;28;20060;-50
2021/05/03 10:27:47;;;;;;;1.30;0.35;;;;;;;10.07;78.01;99199.06;5068547;28;20281;-53
2021/05/03 10:30:19;;;;;;;0.32;0.20;;;;;;;10.07;78.21;99190.78;5072418;28;20128;-47
2021/05/03 10:33:01;;;;;;;1.02;0.30;;;;;;;10.11;78.71;99157.63;5086286;28;20082;-50
2021/05/03 10:35:32;;;;;;;0.80;0.30;;;;;;;10.11;78.35;99155.63;5107662;28;21085;-53
2021/05/03 10:37:59;;;;;;;0.13;0.10;;;;;;;10.16;78.33;99144.28;5089413;28;20500;-51
2021/05/03 10:40:26;;;;;;;0.95;0.13;;;;;;;10.20;78.16;99100.84;5108607;28;20108;-48
2021/05/03 10:43:02;;;;;;;0.10;0.10;;;;;;;10.20;79.31;99092.56;5106887;28;20035;-49
2021/05/03 10:48:37;;;;;;;0.43;0.38;;;;;;;10.24;79.24;99093.41;5097877;28;20055;-52
2021/05/03 10:51:06;;;;;;;0.32;0.20;;;;;;;10.31;79.08;99098.16;5091696;28;20405;-50
2021/05/03 10:56:05;;;;;;;3.17;0.20;;;;;;;10.43;79.06;99047.28;5107390;28;20489;-47
2021/05/03 10:58:52;;;;;;;0.10;0.10;;;;;;;10.49;79.77;99042.97;5106598;28;20525;-49
2021/05/03 11:01:20;;;;;;;0.30;0.30;;;;;;;10.51;78.93;99026.78;5087304;28;20060;-52
2021/05/03 11:03:54;;;;;;;0.73;0.10;;;;;;;10.48;78.89;99028.34;5097342;28;20067;-48
2021/05/03 11:06:38;;;;;;;1.35;0.32;;;;;;;10.48;79.47;98999.88;5106518;28;20048;-53
2021/05/03 11:12:05;;;;;;;0.10;0.10;;;;;;;10.51;79.45;98988.81;5107673;28;20044;-48
2021/05/03 11:15:07;;;;;;;0.28;0.20;;;;;;;10.58;79.93;98980.56;5086719;28;20385;-49
2021/05/03 11:17:34;;;;;;;0.35;0.22;;;;;;;10.65;78.86;98977.03;5100846;28;20071;-47
2021/05/03 11:22:43;;;;;;;0.50;0.13;;;;;;;10.76;79.27;98955.75;5107258;28;20046;-51
2021/05/03 11:25:26;;;;;;;0.30;0.20;;;;;;;10.79;78.84;98949.44;5090113;28;20112;-48
2021/05/03 11:30:57;;;;;;;0.50;0.10;;;;;;;10.85;78.78;98936.81;5106974;28;20043;-49
2021/05/03 11:33:50;;;;;;;1.58;0.20;;;;;;;10.93;79.20;98916.25;5102140;28;20063;-50
2021/05/03 11:36:27;;;;;;;0.85;0.10;;;;;;;11.02;78.94;98894.50;5106929;28;20377;-50
2021/05/03 11:39:06;;;;;;;0.20;0.10;;;;;;;11.15;78.87;98894.91;5110955;28;20519;-52
2021/05/03 11:46:50;;;;;;;0.47;0.30;;;;;;;11.38;78.98;98860.13;5092492;28;20593;-52
2021/05/03 11:49:19;;;;;;;0.15;0.15;;;;;;;11.48;79.01;98855.75;5108234;28;20488;-53
2021/05/03 11:51:55;;;;;;;0.80;0.10;;;;;;;11.57;78.97;98850.59;5110671;28;20075;-51
2021/05/03 11:54:33;;;;;;;0.30;0.20;;;;;;;11.70;79.51;98859.34;5109451;28;20124;-53
2021/05/03 11:57:03;;;;;;;0.20;0.20;;;;;;;11.78;78.82;98827.66;5111283;28;20043;-49
2021/05/03 11:59:30;;;;;;;0.30;0.30;;;;;;;11.85;78.96;98819.28;5110261;28;20063;-48
2021/05/03 12:02:12;;;;;;;1.00;0.17;;;;;;;11.98;79.36;98806.59;5110458;28;20056;-48
2021/05/03 12:04:50;;;;;;;0.52;0.40;;;;;;;12.13;78.72;98797.00;5074474;28;20127;-51
2021/05/03 12:07:21;;;;;;;0.90;0.30;;;;;;;12.23;78.77;98782.31;5097886;28;20065;-49
2021/05/03 12:10:15;;;;;;;3.30;0.65;;;;;;;12.29;78.58;98793.75;5106503;28;20047;-50
2021/05/03 12:12:52;;;;;;;1.23;0.13;;;;;;;12.31;78.56;98780.28;5089790;28;20040;-52
2021/05/03 12:15:27;;;;;;;0.52;0.20;;;;;;;12.25;78.57;98774.38;5110758;28;20146;-49
2021/05/03 12:17:57;;;;;;;0.75;0.55;;;;;;;12.19;78.78;98764.88;5110726;28;20053;-50
2021/05/03 12:20:26;;;;;;;1.23;0.35;;;;;;;12.12;78.94;98770.47;5109213;28;20519;-43
2021/05/03 12:23:09;;;;;;;2.03;0.20;;;;;;;12.04;80.21;98769.72;5110116;28;20047;-46
2021/05/03 12:28:24;;;;;;;11.15;1.15;;;;;;;11.84;80.40;98873.16;5101868;28;20044;-51